M I D A S
Marine Information and Data Acquisition System
Tripno 2243 of the Zeeleeuw from 2011-11-10 07:49:08 to 2011-11-10 16:26:49
Back to CruiseResearch ActivitiesStationsMapUnderway DataData graphs

EquipmentUnitsComment
TimeDGPSUTC
LatitudeDGPSDM.mWGS84
LongitudeDGPSDM.mWGS84
TemperatureSBE03/SBE38deg celciusITS90
ConductivitySBE21S/mITS90
SalinitySBE21 Practical Salinity Units
ChlorophylAChelsea fluorimeterg/lCalibrated in Aceton
Missing or incorrect values are displayed as -999
Sea surface data collected by the RV Zeeleeuw from 2011-11-10 07:20:09 to 2011-11-10 16:36:01
Time Latitude Longitude Temperature Conductivity Salinity ChlorophylA
2011-11-10 07:21:14 51°13.637 2°56.019 19.2245 1.070602 6.348746 -3.020363
2011-11-10 07:22:15 51°13.637 2°56.019 19.2262 1.069778 6.343586 -3.020363
2011-11-10 07:23:14 51°13.634 2°56.018 19.2188 1.070087 6.345561 -3.020363
2011-11-10 07:24:15 51°13.635 2°56.018 19.2219 1.070087 6.345667 -3.020363
2011-11-10 07:25:15 51°13.636 2°56.018 19.2198 1.070602 6.349064 -3.020363
2011-11-10 07:26:15 51°13.637 2°56.018 19.214 1.070911 6.351146 -3.020363
2011-11-10 07:27:15 51°13.637 2°56.018 19.2262 1.072559 6.36168 -3.020363
2011-11-10 07:28:15 51°13.637 2°56.018 19.2251 1.071529 6.355202 -3.020363
2011-11-10 07:29:15 51°13.636 2°56.018 19.2287 1.071426 6.354544 -3.020363
2011-11-10 07:30:16 51°13.638 2°56.019 19.2322 1.070808 6.3507 -3.020363
2011-11-10 07:31:16 51°13.639 2°56.019 19.2409 1.071632 6.355967 -3.020363
2011-11-10 07:32:14 51°13.635 2°56.019 19.2434 1.07225 6.360023 -3.020363
2011-11-10 07:33:13 51°13.636 2°56.019 19.2372 1.07225 6.36013 -3.020363
2011-11-10 07:34:13 51°13.636 2°56.018 19.2392 1.070499 6.349043 -3.020363
2011-11-10 07:35:13 51°13.636 2°56.018 19.2455 1.071323 6.354417 -3.020363
2011-11-10 07:36:13 51°13.635 2°56.018 19.2458 1.071323 6.354629 -3.020363
2011-11-10 07:37:13 51°13.635 2°56.018 19.2341 1.070808 6.351443 -3.020363
2011-11-10 07:38:14 51°13.635 2°56.019 19.2478 1.071323 6.355054 -3.020363
2011-11-10 07:39:14 51°13.636 2°56.019 19.2538 1.070602 6.350551 -3.020363
2011-11-10 07:40:13 51°13.635 2°56.019 19.2473 1.070911 6.352739 -3.020363
2011-11-10 07:41:12 51°13.635 2°56.019 19.2533 1.07122 6.354927 -3.020363
2011-11-10 07:42:13 51°13.634 2°56.019 19.2022 1.083273 6.43234 -3.020363
2011-11-10 07:43:12 51°13.634 2°56.02 19.2121 1.085127 6.444316 -3.020363
2011-11-10 07:44:13 51°13.633 2°56.019 19.2286 1.087703 6.461127 -3.020363
2011-11-10 07:45:12 51°13.632 2°56.019 19.2455 1.089454 6.472666 -3.020363
2011-11-10 07:46:12 51°13.635 2°56.019 19.2602 1.090072 6.476841 -3.020363
2011-11-10 07:47:12 51°13.633 2°56.019 19.2769 1.091412 6.485744 -3.020363
2011-11-10 07:48:13 51°13.633 2°56.019 19.2468 1.092648 6.493772 -3.020363
2011-11-10 07:49:12 51°13.635 2°56.008 19.2697 1.090381 6.479254 -3.020363
2011-11-10 07:50:16 51°13.652 2°55.919 19.2854 1.088424 6.467151 -3.020363
2011-11-10 07:51:16 51°13.69 2°55.812 19.3036 1.092545 6.493873 -3.020363
2011-11-10 07:52:16 51°13.749 2°55.712 19.3289 1.09306 6.497499 -3.020363
2011-11-10 07:53:16 51°13.825 2°55.649 19.3067 1.102744 6.559795 -3.020363
2011-11-10 07:54:16 51°13.903 2°55.626 19.3515 1.105217 6.575873 -3.020363
2011-11-10 07:55:14 51°13.952 2°55.646 19.3055 1.094708 6.508715 -3.020363
2011-11-10 07:56:13 51°13.971 2°55.661 19.1518 1.074104 6.376783 -3.020363
2011-11-10 07:57:12 51°14.008 2°55.569 19.1744 1.048145 6.211102 -3.020363
2011-11-10 07:58:12 51°14.115 2°55.448 19.0859 1.012813 5.985531 -3.020363
2011-11-10 07:59:16 51°14.248 2°55.317 19.0973 0.952559 5.60371 -3.020363
2011-11-10 08:00:16 51°14.382 2°55.19 19.1802 0.956884 5.631745 -3.020363
2011-11-10 08:01:14 51°14.514 2°55.038 19.206 0.888192 5.198258 -3.020363
2011-11-10 08:02:13 51°14.629 2°54.817 19.2998 0.998907 5.899287 -3.020363
2011-11-10 08:03:12 51°14.605 2°54.523 19.0748 0.929901 5.461787 -3.020363
2011-11-10 08:04:12 51°14.494 2°54.227 19.0701 0.789754 4.582704 -3.020363
2011-11-10 08:05:12 51°14.359 2°53.947 19.1002 0.596227 3.392061 -3.020363
2011-11-10 08:06:13 51°14.215 2°53.671 19.0898 0.668482 3.833733 -3.020363
2011-11-10 08:07:12 51°14.073 2°53.41 19.1016 0.53592 3.027714 -3.020363
2011-11-10 08:08:12 51°13.938 2°53.131 19.1445 0.779046 4.517397 -3.020363
2011-11-10 08:09:12 51°13.796 2°52.86 19.0656 0.637912 3.647113 -3.020363
2011-11-10 08:10:12 51°13.67 2°52.568 19.0628 0.437549 2.440469 -3.020363
2011-11-10 08:11:12 51°13.569 2°52.249 19.1645 0.658601 3.774601 -3.020363
2011-11-10 08:12:12 51°13.473 2°51.929 19.2028 0.688349 3.957806 -3.020363
2011-11-10 08:13:12 51°13.368 2°51.614 19.1544 0.525217 2.964935 -3.020363
2011-11-10 08:14:12 51°13.263 2°51.298 19.1786 0.736939 4.258373 -3.020363
2011-11-10 08:15:12 51°13.149 2°50.99 19.1951 0.691334 3.977241 -3.020363
2011-11-10 08:16:12 51°13.041 2°50.679 19.2221 0.573688 3.258612 -3.020363
2011-11-10 08:17:12 51°12.94 2°50.36 19.1696 0.604152 3.444024 -3.020363
2011-11-10 08:18:12 51°12.836 2°50.043 19.1201 0.622576 3.556869 -3.020363
2011-11-10 08:19:12 51°12.727 2°49.73 19.1204 0.514927 2.904959 -3.020363
2011-11-10 08:20:13 51°12.612 2°49.415 19.1783 0.425614 2.372233 -3.020363
2011-11-10 08:21:12 51°12.515 2°49.1 19.2534 0.62978 3.602258 -3.020363
2011-11-10 08:22:12 51°12.411 2°48.784 19.267 0.699261 4.02957 -3.020363
2011-11-10 08:23:12 51°12.298 2°48.474 19.2477 0.531906 3.008764 -3.020363
2011-11-10 08:24:12 51°12.19 2°48.162 19.1757 0.475002 2.667595 -3.020363
2011-11-10 08:25:12 51°12.096 2°47.838 19.3268 0.555884 3.154562 -3.020363
2011-11-10 08:26:12 51°12.006 2°47.51 19.3284 0.641205 3.674793 -3.020363
2011-11-10 08:27:12 51°11.905 2°47.19 19.3141 0.565764 3.215433 -3.020363
2011-11-10 08:28:12 51°11.812 2°46.864 19.3481 0.647999 3.717364 -3.020363
2011-11-10 08:29:12 51°11.72 2°46.537 19.3477 0.747028 4.329626 -3.020363
2011-11-10 08:30:12 51°11.617 2°46.217 19.3284 0.460905 2.585427 -3.020363
2011-11-10 08:31:12 51°11.523 2°45.893 19.3801 0.548166 3.110517 -3.020363
2011-11-10 08:32:12 51°11.43 2°45.57 19.3725 0.672909 3.87273 -3.020363
2011-11-10 08:33:12 51°11.329 2°45.254 19.3572 0.513692 2.903061 -3.020363
2011-11-10 08:34:12 51°11.231 2°44.936 19.3281 0.447941 2.509702 -3.020363
2011-11-10 08:35:12 51°11.153 2°44.604 19.3917 0.513898 2.905272 -3.020363
2011-11-10 08:36:12 51°11.073 2°44.273 19.3838 0.625869 3.585971 -3.020363
2011-11-10 08:37:12 51°10.987 2°43.947 19.402 0.536846 3.044462 -3.020363
2011-11-10 08:38:12 51°10.916 2°43.612 19.4084 0.564941 3.215335 -3.020363
2011-11-10 08:39:12 51°10.84 2°43.28 19.4727 0.610842 3.495522 -3.020363
2011-11-10 08:40:12 51°10.758 2°42.954 19.4271 0.516265 2.921585 -3.020363
2011-11-10 08:41:12 51°10.672 2°42.633 19.4603 0.399893 2.226835 -3.020363
2011-11-10 08:42:12 51°10.586 2°42.312 19.4383 0.440739 2.469668 -3.020363
2011-11-10 08:43:12 51°10.505 2°41.99 19.4193 0.460082 2.585353 -3.020363
2011-11-10 08:44:12 51°10.435 2°41.662 19.5055 0.394235 2.194541 -3.020363
2011-11-10 08:45:12 51°10.359 2°41.339 14.6179 2.300389 14.667774 -3.020363
2011-11-10 08:46:12 51°10.282 2°41.016 13.1829 4.201805 34.513 -3.020363
2011-11-10 08:47:12 51°10.212 2°40.689 13.0659 4.029746 33.869072 -3.020363
2011-11-10 08:48:12 51°10.145 2°40.362 13.0484 4.005808 33.780646 -3.020363
2011-11-10 08:49:12 51°10.081 2°40.03 13.0563 4.002078 33.779513 -3.020363
2011-11-10 08:50:12 51°9.998 2°39.712 13.0626 4.002389 33.804374 -3.020363
2011-11-10 08:51:12 51°9.913 2°39.395 13.0659 4.003943 33.819026 -3.020363
2011-11-10 08:52:12 51°9.835 2°39.074 13.0708 4.004669 33.831165 -3.020363
2011-11-10 08:53:13 51°9.772 2°38.739 13.0876 4.00612 33.841054 -3.020363
2011-11-10 08:54:12 51°9.718 2°38.41 13.1086 4.007881 33.848568 -3.020363
2011-11-10 08:55:12 51°9.642 2°38.085 13.1292 4.010783 33.861516 -3.020363
2011-11-10 08:56:12 51°9.584 2°37.751 13.1403 4.013581 33.871967 -3.020363
2011-11-10 08:57:12 51°9.506 2°37.426 13.1371 4.015032 33.879572 -3.020363
2011-11-10 08:58:12 51°9.428 2°37.102 13.1197 4.014617 33.881728 -3.020363
2011-11-10 08:59:12 51°9.344 2°36.783 13.0866 4.011198 33.869969 -3.020363
2011-11-10 09:00:12 51°9.276 2°36.454 13.0433 4.005498 33.848836 -3.020363
2011-11-10 09:01:12 51°9.205 2°36.126 12.9985 3.998659 33.826023 -3.020363
2011-11-10 09:02:12 51°9.116 2°35.811 12.9759 3.992234 33.798744 -3.020363
2011-11-10 09:03:12 51°9.046 2°35.484 12.9549 3.987467 33.777993 -3.020363
2011-11-10 09:04:12 51°8.974 2°35.159 12.9286 3.983115 33.758106 -3.020363
2011-11-10 09:05:12 51°8.892 2°34.84 12.9174 3.979799 33.743449 -3.020363
2011-11-10 09:06:12 51°8.817 2°34.518 12.917 3.978141 33.737636 -3.020363
2011-11-10 09:07:12 51°8.737 2°34.202 12.934 3.978867 33.741461 -3.020363
2011-11-10 09:08:12 51°8.653 2°33.89 12.9557 3.981872 33.756218 -3.020363
2011-11-10 09:09:12 51°8.575 2°33.576 12.9602 3.984566 33.766509 -3.020363
2011-11-10 09:10:12 51°8.521 2°33.252 12.9609 3.985291 33.77033 -3.020363
2011-11-10 09:11:12 51°8.543 2°32.924 12.9756 3.973788 33.657822 -3.020363
2011-11-10 09:12:12 51°8.67 2°32.667 13.0105 3.894622 32.901442 -3.020363
2011-11-10 09:13:12 51°8.855 2°32.549 13.0908 3.897316 32.887652 -3.020363
2011-11-10 09:14:12 51°9.018 2°32.721 13.183 4.001145 33.781309 -3.020363
2011-11-10 09:15:12 51°9.164 2°32.951 13.2251 4.015964 33.859591 -3.020363
2011-11-10 09:16:12 51°9.299 2°33.197 13.237 4.022596 33.891732 -3.020363
2011-11-10 09:17:12 51°9.436 2°33.442 13.2212 4.024151 33.899543 -3.020363
2011-11-10 09:18:12 51°9.577 2°33.68 13.2007 4.021664 33.892792 -3.020363
2011-11-10 09:19:12 51°9.729 2°33.902 13.2109 4.019384 33.881936 -3.020363
2011-11-10 09:20:12 51°9.882 2°34.122 13.2174 4.021664 33.897332 -3.020363
2011-11-10 09:21:12 51°10.027 2°34.356 13.2102 4.023633 33.908287 -3.020363
2011-11-10 09:22:12 51°10.172 2°34.59 13.1993 4.022597 33.906863 -3.020363
2011-11-10 09:23:12 51°10.323 2°34.812 13.1921 4.02042 33.89547 -3.020363
2011-11-10 09:24:12 51°10.473 2°35.035 13.192 4.01244 33.824928 -3.020363
2011-11-10 09:25:12 51°10.632 2°35.241 13.1963 4.014306 33.840966 -3.020363
2011-11-10 09:26:12 51°10.79 2°35.45 13.1994 4.013477 33.831655 -3.020363
2011-11-10 09:27:13 51°10.959 2°35.641 13.2122 4.013477 33.828633 -3.020363
2011-11-10 09:28:12 51°11.116 2°35.843 13.2216 4.01244 33.807562 -3.020363
2011-11-10 09:29:13 51°11.273 2°36.062 13.2343 4.01244 33.799264 -3.020363
2011-11-10 09:30:12 51°11.429 2°36.268 13.2469 4.025913 33.915352 -3.020363
2011-11-10 09:31:12 51°11.591 2°36.47 13.2643 4.026845 33.912775 -3.020363
2011-11-10 09:32:12 51°11.756 2°36.663 13.2793 4.028089 33.908587 -3.020363
2011-11-10 09:33:12 51°11.916 2°36.87 13.2854 4.02954 33.910128 -3.020363
2011-11-10 09:34:12 51°12.075 2°37.077 13.2856 4.02985 33.907761 -3.020363
2011-11-10 09:35:12 51°12.24 2°37.269 13.2808 4.02954 33.905596 -3.020363
2011-11-10 09:36:13 51°12.408 2°37.466 13.2733 4.028814 33.902559 -3.020363
2011-11-10 09:37:12 51°12.592 2°37.582 13.2661 4.02726 33.898531 -3.020363
2011-11-10 09:38:12 51°12.783 2°37.688 13.2685 4.025187 33.882834 -3.020363
2011-11-10 09:39:12 51°12.978 2°37.748 13.2686 4.026845 33.898413 -3.020363
2011-11-10 09:40:12 51°13.179 2°37.738 13.2605 4.014201 33.778896 -3.020363
2011-11-10 09:41:12 51°13.379 2°37.733 13.2464 4.026949 33.906188 -3.020363
2011-11-10 09:42:12 51°13.566 2°37.687 13.2395 4.025913 33.910057 -3.020363
2011-11-10 09:43:12 51°13.684 2°37.454 13.2421 4.025187 33.907018 -3.020363
2011-11-10 09:44:12 51°13.755 2°37.161 13.246 4.025705 33.906596 -3.020363
2011-11-10 09:45:12 51°13.814 2°36.858 13.2491 4.026016 33.908762 -3.020363
2011-11-10 09:46:12 51°13.887 2°36.563 13.2585 4.026638 33.908558 -3.020363
2011-11-10 09:47:12 51°13.901 2°36.254 13.2664 4.02726 33.90911 -3.020363
2011-11-10 09:48:12 51°13.91 2°35.942 13.2788 4.028918 33.91411 -3.020363
2011-11-10 09:49:12 51°13.919 2°35.633 13.2923 4.031094 33.923975 -3.020363
2011-11-10 09:50:12 51°13.915 2°35.324 13.3081 4.033374 33.934054 -3.020363
2011-11-10 09:51:12 51°13.92 2°35.016 13.3247 4.035654 33.940351 -3.020363
2011-11-10 09:52:12 51°13.917 2°34.704 13.3388 4.037208 33.942103 -3.020363
2011-11-10 09:53:12 51°13.91 2°34.392 13.3646 4.037934 33.936076 -3.020363
2011-11-10 09:54:12 51°13.898 2°34.08 13.3914 4.039592 33.925983 -3.020363
2011-11-10 09:55:12 51°13.901 2°33.763 13.3897 4.040421 33.914918 -3.020363
2011-11-10 09:56:12 51°13.898 2°33.445 13.3744 4.038141 33.901083 -3.020363
2011-11-10 09:57:12 51°13.899 2°33.125 13.3412 4.034824 33.884306 -3.020363
2011-11-10 09:58:12 51°13.89 2°32.806 13.3261 4.031404 33.877092 -3.020363
2011-11-10 09:59:12 51°13.99 2°32.544 13.3634 4.030057 33.867468 -3.020363
2011-11-10 10:00:12 51°14.183 2°32.502 13.4257 4.03358 33.868885 -3.020363
2011-11-10 10:01:12 51°14.373 2°32.646 13.4887 4.042596 33.89317 -3.020363
2011-11-10 10:02:12 51°14.548 2°32.84 13.5309 4.051613 33.925672 -3.020363
2011-11-10 10:03:12 51°14.721 2°33.042 13.5523 4.057313 33.945904 -3.020363
2011-11-10 10:04:12 51°14.899 2°33.231 13.5627 4.060111 33.957029 -3.020363
2011-11-10 10:05:13 51°15.083 2°33.421 13.5716 4.061147 33.959952 -3.020363
2011-11-10 10:06:12 51°15.256 2°33.62 13.5796 4.062598 33.962994 -3.020363
2011-11-10 10:07:12 51°15.432 2°33.823 13.5907 4.064153 33.970753 -3.020363
2011-11-10 10:08:12 51°15.612 2°34.018 13.6055 4.066018 33.97541 -3.020363
2011-11-10 10:09:12 51°15.781 2°34.234 13.6223 4.068506 33.985866 -3.020363
2011-11-10 10:10:12 51°15.921 2°34.503 13.6362 4.070682 33.992669 -3.020363
2011-11-10 10:11:12 51°16.056 2°34.778 13.6706 4.07348 34.002267 -3.020363
2011-11-10 10:12:12 51°16.193 2°35.049 13.7119 4.079077 34.021447 -3.020363
2011-11-10 10:13:12 51°16.335 2°35.278 13.6749 4.083741 34.041657 -3.020363
2011-11-10 10:14:13 51°16.495 2°35.247 13.63 4.077419 34.026229 -3.020363
2011-11-10 10:15:12 51°16.506 2°35.031 13.654 4.071719 34.002333 -3.020363
2011-11-10 10:16:12 51°16.403 2°34.842 13.6985 4.077108 34.021083 -3.020363
2011-11-10 10:17:12 51°16.242 2°34.699 13.7281 4.083223 34.042824 -3.020363
2011-11-10 10:18:12 51°16.072 2°34.551 13.7239 4.086125 34.048868 -3.020363
2011-11-10 10:19:12 51°15.895 2°34.422 13.7139 4.085295 34.044147 -3.020363
2011-11-10 10:20:12 51°15.774 2°34.433 13.687 4.082601 34.037783 -3.020363
2011-11-10 10:21:12 51°15.773 2°34.563 13.6738 4.078662 34.020581 -3.020363
2011-11-10 10:22:12 51°15.888 2°34.619 13.6633 4.075864 34.007997 -3.020363
2011-11-10 10:23:12 51°16.087 2°34.735 13.6976 4.076174 33.963765 -3.020363
2011-11-10 10:24:12 51°16.277 2°34.917 13.7 4.078869 34.002299 -3.020363
2011-11-10 10:25:12 51°16.469 2°35.093 13.718 4.080735 34.016672 -3.020363
2011-11-10 10:26:12 51°16.661 2°35.265 13.736 4.085192 34.037943 -3.020363
2011-11-10 10:27:12 51°16.86 2°35.416 13.7406 4.087161 34.045787 -3.020363
2011-11-10 10:28:12 51°17.052 2°35.586 13.7328 4.087368 34.045471 -3.020363
2011-11-10 10:29:12 51°17.244 2°35.756 13.6966 4.084777 34.034085 -3.020363
2011-11-10 10:30:12 51°17.438 2°35.906 13.6188 4.078351 34.007203 -3.020363
2011-11-10 10:31:12 51°17.633 2°35.866 13.5048 4.061458 33.936614 -3.020363
2011-11-10 10:32:12 51°17.779 2°35.676 13.4044 4.042596 33.852642 -3.020363
2011-11-10 10:33:12 51°17.886 2°35.43 13.3661 4.027051 33.774687 -3.020363
2011-11-10 10:34:12 51°17.861 2°35.142 13.374 4.020211 33.745871 -3.020363
2011-11-10 10:35:12 51°17.804 2°34.856 13.4206 4.022905 33.753116 -3.020363
2011-11-10 10:36:12 51°17.727 2°34.59 13.4462 4.029227 33.784564 -3.020363
2011-11-10 10:37:12 51°17.648 2°34.322 13.4995 4.034409 33.807564 -3.020363
2011-11-10 10:38:12 51°17.571 2°34.048 13.5344 4.033683 33.764112 -3.020363
2011-11-10 10:39:12 51°17.485 2°33.785 13.6154 4.042595 33.80026 -3.020363
2011-11-10 10:40:12 51°17.403 2°33.522 13.7159 4.05814 33.862329 -3.020363
2011-11-10 10:41:13 51°17.337 2°33.245 13.7744 4.071924 33.913792 -3.020363
2011-11-10 10:42:12 51°17.264 2°32.982 13.7858 4.079179 33.943215 -3.020363
2011-11-10 10:43:12 51°17.18 2°32.722 13.7815 4.082185 33.964432 -3.020363
2011-11-10 10:44:12 51°17.106 2°32.456 13.765 4.081356 33.961202 -3.020363
2011-11-10 10:45:12 51°17.039 2°32.182 13.7413 4.079594 33.958997 -3.020363
2011-11-10 10:46:12 51°16.957 2°31.916 13.7078 4.076589 33.952689 -3.020363
2011-11-10 10:47:12 51°16.886 2°31.642 13.6772 4.071718 33.936486 -3.020363
2011-11-10 10:48:12 51°16.808 2°31.372 13.6354 4.06695 33.922726 -3.020363
2011-11-10 10:49:12 51°16.722 2°31.106 13.6252 4.062597 33.906837 -3.020363
2011-11-10 10:50:13 51°16.651 2°30.823 13.6087 4.06011 33.902344 -3.020363
2011-11-10 10:51:12 51°16.57 2°30.557 13.5986 4.058037 33.891245 -3.020363
2011-11-10 10:52:12 51°16.483 2°30.293 13.5886 4.056794 33.890866 -3.020363
2011-11-10 10:53:12 51°16.403 2°30.022 13.5699 4.054617 33.881785 -3.020363
2011-11-10 10:54:12 51°16.34 2°29.74 13.5757 4.052337 33.870238 -3.020363
2011-11-10 10:55:12 51°16.267 2°29.466 13.5989 4.052959 33.871552 -3.020363
2011-11-10 10:56:12 51°16.197 2°29.192 13.6698 4.057519 33.881928 -3.020363
2011-11-10 10:57:12 51°16.125 2°28.922 13.8009 4.06695 33.898835 -3.020363
2011-11-10 10:58:12 51°16.056 2°28.652 13.8932 4.082288 33.934112 -3.020363
2011-11-10 10:59:12 51°15.988 2°28.387 13.9559 4.094 33.966145 -3.020363
2011-11-10 11:00:12 51°15.926 2°28.115 14.0001 4.103017 33.996178 -3.020363
2011-11-10 11:01:12 51°15.852 2°27.85 14.0202 4.108718 34.017004 -3.020363
2011-11-10 11:02:12 51°15.789 2°27.576 14.0218 4.111516 34.0273 -3.020363
2011-11-10 11:03:12 51°15.713 2°27.309 14.0114 4.110791 34.021335 -3.020363
2011-11-10 11:04:12 51°15.634 2°27.041 14.0076 4.109236 34.013637 -3.020363
2011-11-10 11:05:12 51°15.578 2°26.762 14.0046 4.108614 34.00937 -3.020363
2011-11-10 11:06:12 51°15.564 2°26.478 14.002 4.107577 33.999788 -3.020363
2011-11-10 11:07:12 51°15.59 2°26.194 14.002 4.106852 33.99827 -3.020363
2011-11-10 11:08:12 51°15.606 2°25.913 13.9997 4.106023 33.993568 -3.020363
2011-11-10 11:09:12 51°15.618 2°25.632 13.9977 4.105712 33.991435 -3.020363
2011-11-10 11:10:12 51°15.639 2°25.352 13.9991 4.105608 33.989735 -3.020363
2011-11-10 11:11:12 51°15.672 2°25.074 13.9956 4.105193 33.986643 -3.020363
2011-11-10 11:12:12 51°15.816 2°24.881 14.0102 4.10509 33.981237 -3.020363
2011-11-10 11:13:12 51°16.029 2°24.898 14.0204 4.105815 33.976832 -3.020363
2011-11-10 11:14:13 51°16.226 2°25.091 14.0291 4.107059 33.979439 -3.020363
2011-11-10 11:15:12 51°16.415 2°25.291 14.0372 4.108614 33.9864 -3.020363
2011-11-10 11:16:12 51°16.613 2°25.48 14.0386 4.10965 33.990792 -3.020363
2011-11-10 11:17:12 51°16.808 2°25.679 14.0479 4.110687 33.994444 -3.020363
2011-11-10 11:18:12 51°17.002 2°25.886 14.0557 4.112138 34.003404 -3.020363
2011-11-10 11:19:12 51°17.199 2°26.088 14.0632 4.118046 34.050562 -3.020363
2011-11-10 11:20:12 51°17.397 2°26.288 14.0626 4.119083 34.054205 -3.020363
2011-11-10 11:21:13 51°17.601 2°26.482 14.0703 4.119601 34.058991 -3.020363
2011-11-10 11:22:12 51°17.791 2°26.69 14.0683 4.120015 34.057631 -3.020363
2011-11-10 11:23:12 51°17.984 2°26.903 14.0674 4.119912 34.058897 -3.020363
2011-11-10 11:24:12 51°18.184 2°27.099 14.067 4.119704 34.056983 -3.020363
2011-11-10 11:25:12 51°18.384 2°27.291 14.0715 4.119912 34.056673 -3.020363
2011-11-10 11:26:12 51°18.578 2°27.5 14.0759 4.12043 34.057753 -3.020363
2011-11-10 11:27:12 51°18.772 2°27.706 14.0701 4.12043 34.057012 -3.020363
2011-11-10 11:28:12 51°18.973 2°27.891 14.0689 4.120119 34.055623 -3.020363
2011-11-10 11:29:12 51°19.175 2°28.073 14.0627 4.11929 34.053154 -3.020363
2011-11-10 11:30:12 51°19.369 2°28.278 14.0589 4.118461 34.04772 -3.020363
2011-11-10 11:31:12 51°19.565 2°28.482 14.0603 4.117839 34.044942 -3.020363
2011-11-10 11:32:12 51°19.762 2°28.682 14.0583 4.117424 34.041113 -3.020363
2011-11-10 11:33:12 51°19.965 2°28.863 14.0623 4.117113 34.038982 -3.020363
2011-11-10 11:34:12 51°20.164 2°29.056 14.0585 4.116802 34.03537 -3.020363
2011-11-10 11:35:12 51°20.353 2°29.276 14.0576 4.116284 34.032065 -3.020363
2011-11-10 11:36:12 51°20.534 2°29.514 14.0544 4.115869 34.030459 -3.020363
2011-11-10 11:37:12 51°20.73 2°29.709 14.0484 4.115247 34.026938 -3.020363
2011-11-10 11:38:12 51°20.948 2°29.825 14.0463 4.114522 34.023941 -3.020363
2011-11-10 11:39:12 51°21.167 2°29.831 14.0456 4.113796 34.021685 -3.020363
2011-11-10 11:40:12 51°21.372 2°29.732 14.0422 4.113382 34.019336 -3.020363
2011-11-10 11:41:12 51°21.559 2°29.573 14.0437 4.113174 34.019644 -3.020363
2011-11-10 11:42:12 51°21.752 2°29.432 14.0507 4.114107 34.022334 -3.020363
2011-11-10 11:43:12 51°21.938 2°29.279 14.0565 4.115247 34.029161 -3.020363
2011-11-10 11:44:12 51°22.129 2°29.139 14.0615 4.11618 34.03259 -3.020363
2011-11-10 11:45:12 51°22.323 2°29.005 14.0712 4.117424 34.036667 -3.020363
2011-11-10 11:46:13 51°22.487 2°28.808 14.0903 4.118564 34.042009 -3.020363
2011-11-10 11:47:12 51°22.62 2°28.577 14.1131 4.121777 34.050191 -3.020363
2011-11-10 11:48:12 51°22.738 2°28.327 14.1025 4.123125 34.05522 -3.020363
2011-11-10 11:49:12 51°22.855 2°28.075 14.1057 4.122606 34.051179 -3.020363
2011-11-10 11:50:12 51°22.9 2°27.791 14.1276 4.123125 34.051519 -3.020363
2011-11-10 11:51:12 51°22.902 2°27.499 14.1637 4.126131 34.060742 -3.020363
2011-11-10 11:52:12 51°22.914 2°27.205 14.2003 4.131624 34.078095 -3.020363
2011-11-10 11:53:12 51°22.928 2°26.911 14.2404 4.138258 34.10445 -3.020363
2011-11-10 11:54:12 51°22.967 2°26.625 14.2812 4.144788 34.12834 -3.020363
2011-11-10 11:55:12 51°23.055 2°26.355 14.3044 4.1508 34.156299 -3.020363
2011-11-10 11:56:12 51°23.194 2°26.137 14.3251 4.155672 34.175229 -3.020363
2011-11-10 11:57:12 51°23.387 2°26.023 14.3139 4.158264 34.190916 -3.020363
2011-11-10 11:58:12 51°23.603 2°26.096 14.2923 4.15702 34.186134 -3.020363
2011-11-10 11:59:12 51°23.795 2°26.306 14.2769 4.153807 34.175809 -3.020363
2011-11-10 12:00:12 51°23.981 2°26.533 14.2649 4.151941 34.169 -3.020363
2011-11-10 12:01:12 51°24.175 2°26.739 14.2585 4.150386 34.166527 -3.020363
2011-11-10 12:02:12 51°24.37 2°26.943 14.2531 4.149246 34.161214 -3.020363
2011-11-10 12:03:12 51°24.56 2°27.159 14.2487 4.148727 34.157925 -3.020363
2011-11-10 12:04:12 51°24.75 2°27.374 14.2462 4.147898 34.155471 -3.020363
2011-11-10 12:05:12 51°24.946 2°27.576 14.2472 4.147483 34.153875 -3.020363
2011-11-10 12:06:12 51°25.141 2°27.779 14.2486 4.14738 34.1544 -3.020363
2011-11-10 12:07:12 51°25.336 2°27.986 14.2463 4.147276 34.153446 -3.020363
2011-11-10 12:08:12 51°25.535 2°28.177 14.2468 4.147276 34.153446 -3.020363
2011-11-10 12:09:12 51°25.728 2°28.387 14.2477 4.14738 34.152921 -3.020363
2011-11-10 12:10:12 51°25.921 2°28.596 14.2468 4.147587 34.154828 -3.020363
2011-11-10 12:11:12 51°26.121 2°28.787 14.2496 4.147483 34.153875 -3.020363
2011-11-10 12:12:12 51°26.321 2°28.986 14.2532 4.147794 34.153778 -3.020363
2011-11-10 12:13:12 51°26.511 2°29.206 14.2538 4.148313 34.155589 -3.020363
2011-11-10 12:14:12 51°26.705 2°29.419 14.267 4.148416 34.155804 -3.020363
2011-11-10 12:15:12 51°26.897 2°29.639 14.2574 4.148727 34.154968 -3.020363
2011-11-10 12:16:12 51°27.095 2°29.843 14.2731 4.148935 34.155397 -3.020363
2011-11-10 12:17:12 51°27.286 2°30.066 14.2684 4.149867 34.156587 -3.020363
2011-11-10 12:18:12 51°27.485 2°30.272 14.2765 4.150697 34.160518 -3.020363
2011-11-10 12:19:12 51°27.683 2°30.477 14.293 4.151733 34.164138 -3.020363
2011-11-10 12:20:12 51°27.875 2°30.702 14.3086 4.154117 34.172018 -3.020363
2011-11-10 12:21:12 51°28.067 2°30.922 14.318 4.156294 34.177251 -3.020363
2011-11-10 12:22:12 51°28.262 2°31.133 14.3173 4.157227 34.180654 -3.020363
2011-11-10 12:23:12 51°28.452 2°31.354 14.3232 4.157745 34.1832 -3.020363
2011-11-10 12:24:12 51°28.646 2°31.565 14.3328 4.158056 34.183103 -3.020363
2011-11-10 12:25:12 51°28.844 2°31.767 14.3352 4.158886 34.185553 -3.020363
2011-11-10 12:26:12 51°29.034 2°31.992 14.3398 4.159819 34.188953 -3.020363
2011-11-10 12:27:12 51°29.223 2°32.217 14.347 4.160648 34.193616 -3.020363
2011-11-10 12:28:12 51°29.418 2°32.421 14.3573 4.161995 34.198609 -3.020363
2011-11-10 12:29:12 51°29.612 2°32.635 14.36 4.163758 34.206668 -3.020363
2011-11-10 12:30:12 51°29.798 2°32.864 14.3687 4.165416 34.214512 -3.020363
2011-11-10 12:31:12 51°29.987 2°33.08 14.3717 4.16666 34.222239 -3.020363
2011-11-10 12:32:12 51°30.2 2°33.192 14.3797 4.16749 34.226897 -3.020363
2011-11-10 12:33:12 51°30.421 2°33.284 14.3839 4.168526 34.230505 -3.020363
2011-11-10 12:34:12 51°30.638 2°33.407 14.3845 4.169459 34.233899 -3.020363
2011-11-10 12:35:12 51°30.856 2°33.518 14.389 4.169977 34.237916 -3.020363
2011-11-10 12:36:12 51°31.074 2°33.627 14.3931 4.170496 34.241934 -3.020363
2011-11-10 12:37:12 51°31.292 2°33.75 14.3914 4.171221 34.245639 -3.020363
2011-11-10 12:38:12 51°31.512 2°33.861 14.3956 4.171947 34.249343 -3.020363
2011-11-10 12:39:12 51°31.731 2°33.974 14.3957 4.172776 34.256213 -3.020363
2011-11-10 12:40:12 51°31.951 2°34.084 14.4011 4.173606 34.260868 -3.020363
2011-11-10 12:41:12 51°32.171 2°34.203 14.4074 4.174435 34.264784 -3.020363
2011-11-10 12:42:12 51°32.39 2°34.328 14.4051 4.175161 34.268486 -3.020363
2011-11-10 12:43:12 51°32.61 2°34.441 14.4081 4.175472 34.271339 -3.020363
2011-11-10 12:44:12 51°32.833 2°34.556 14.4086 4.175679 34.271025 -3.020363
2011-11-10 12:45:12 51°33.054 2°34.675 14.4106 4.175679 34.269549 -3.020363
2011-11-10 12:46:12 51°33.279 2°34.779 14.408 4.175783 34.270499 -3.020363
2011-11-10 12:47:12 51°33.501 2°34.837 14.407 4.176301 34.275992 -3.020363
2011-11-10 12:48:12 51°33.717 2°34.768 14.4149 4.176819 34.277792 -3.020363
2011-11-10 12:49:12 51°33.921 2°34.64 14.4124 4.176923 34.280958 -3.020363
2011-11-10 12:50:12 51°34.131 2°34.528 14.4096 4.176923 34.280958 -3.020363
2011-11-10 12:51:12 51°34.343 2°34.425 14.404 4.176094 34.274829 -3.020363
2011-11-10 12:52:12 51°34.567 2°34.438 14.4175 4.175264 34.263531 -3.020363
2011-11-10 12:53:12 51°34.791 2°34.509 14.4243 4.175471 34.256576 -3.020363
2011-11-10 12:54:12 51°35.016 2°34.586 14.4366 4.175679 34.253313 -3.020363
2011-11-10 12:55:12 51°35.237 2°34.68 14.4431 4.176923 34.252916 -3.020363
2011-11-10 12:56:12 51°35.46 2°34.766 14.4531 4.177752 34.256093 -3.020363
2011-11-10 12:57:12 51°35.685 2°34.839 14.4464 4.178063 34.258943 -3.020363
2011-11-10 12:58:12 51°35.908 2°34.923 14.4496 4.178478 34.259793 -3.020363
2011-11-10 12:59:12 51°36.129 2°35.012 14.4604 4.179099 34.261069 -3.020363
2011-11-10 13:00:12 51°36.351 2°35.091 14.4653 4.179514 34.259708 -3.020363
2011-11-10 13:01:12 51°36.574 2°35.16 14.4678 4.179929 34.259085 -3.020363
2011-11-10 13:02:12 51°36.796 2°35.245 14.4746 4.18024 34.258986 -3.020363
2011-11-10 13:03:12 51°37.018 2°35.32 14.4688 4.180343 34.259199 -3.020363
2011-11-10 13:04:12 51°37.24 2°35.391 14.4683 4.18024 34.258986 -3.020363
2011-11-10 13:05:12 51°37.461 2°35.476 14.4712 4.180343 34.259199 -3.020363
2011-11-10 13:06:12 51°37.683 2°35.55 14.4687 4.180447 34.260885 -3.020363
2011-11-10 13:07:12 51°37.904 2°35.62 14.4712 4.180551 34.261098 -3.020363
2011-11-10 13:08:12 51°38.123 2°35.639 14.4725 4.180862 34.260999 -3.020363
2011-11-10 13:09:12 51°38.273 2°35.439 14.4769 4.180654 34.261311 -3.020363
2011-11-10 13:10:12 51°38.331 2°35.148 14.4806 4.181276 34.26185 -3.020363
2011-11-10 13:11:12 51°38.295 2°34.867 14.4855 4.181691 34.263437 -3.020363
2011-11-10 13:12:12 51°38.237 2°34.595 14.4922 4.182313 34.265449 -3.020363
2011-11-10 13:13:12 51°38.175 2°34.323 14.4868 4.18252 34.263664 -3.020363
2011-11-10 13:14:12 51°38.078 2°34.084 14.4922 4.182313 34.265449 -3.020363
2011-11-10 13:15:12 51°37.98 2°33.844 14.4863 4.182417 34.264925 -3.020363
2011-11-10 13:16:12 51°37.873 2°33.617 14.4904 4.182417 34.265662 -3.020363
2011-11-10 13:17:12 51°37.757 2°33.4 14.4886 4.18252 34.265874 -3.020363
2011-11-10 13:18:12 51°37.637 2°33.19 14.4833 4.18252 34.265138 -3.020363
2011-11-10 13:19:12 51°37.519 2°32.978 14.4883 4.18252 34.266611 -3.020363
2011-11-10 13:20:12 51°37.411 2°32.75 14.4882 4.182624 34.26756 -3.020363
2011-11-10 13:21:12 51°37.296 2°32.533 14.487 4.183039 34.27062 -3.020363
2011-11-10 13:22:12 51°37.177 2°32.32 14.4854 4.183246 34.273992 -3.020363
2011-11-10 13:23:12 51°37.067 2°32.096 14.4854 4.18335 34.274205 -3.020363
2011-11-10 13:24:12 51°36.948 2°31.882 14.4877 4.183868 34.277477 -3.020363
2011-11-10 13:25:12 51°36.826 2°31.668 14.4954 4.184594 34.281174 -3.020363
2011-11-10 13:26:12 51°36.704 2°31.453 14.5027 4.185216 34.281711 -3.020363
2011-11-10 13:27:12 51°36.588 2°31.229 14.5056 4.186356 34.28773 -3.020363
2011-11-10 13:28:12 51°36.47 2°31.009 14.5092 4.187185 34.2909 -3.020363
2011-11-10 13:29:12 51°36.348 2°30.793 14.5045 4.187704 34.295645 -3.020363
2011-11-10 13:30:12 51°36.231 2°30.571 14.5098 4.188015 34.297018 -3.020363
2011-11-10 13:31:12 51°36.105 2°30.367 14.5154 4.188222 34.296705 -3.020363
2011-11-10 13:32:12 51°35.983 2°30.154 14.5146 4.188222 34.294495 -3.020363
2011-11-10 13:33:12 51°35.866 2°29.933 14.5222 4.188533 34.293658 -3.020363
2011-11-10 13:34:12 51°35.75 2°29.708 14.5174 4.188222 34.290812 -3.020363
2011-11-10 13:35:12 51°35.624 2°29.499 14.5161 4.188118 34.287654 -3.020363
2011-11-10 13:36:12 51°35.484 2°29.311 14.5228 4.187911 34.28723 -3.020363
2011-11-10 13:37:12 51°35.352 2°29.107 14.5204 4.188118 34.286918 -3.020363
2011-11-10 13:38:12 51°35.215 2°28.917 14.5192 4.1876 34.28512 -3.020363
2011-11-10 13:39:12 51°35.084 2°28.714 14.5205 4.187911 34.285757 -3.020363
2011-11-10 13:40:12 51°34.951 2°28.514 14.5192 4.187807 34.284809 -3.020363
2011-11-10 13:41:12 51°34.818 2°28.316 14.5171 4.1876 34.282911 -3.020363
2011-11-10 13:42:12 51°34.686 2°28.116 14.5219 4.187496 34.282699 -3.020363
2011-11-10 13:43:12 51°34.548 2°27.924 14.5157 4.187807 34.284072 -3.020363
2011-11-10 13:44:12 51°34.417 2°27.716 14.5158 4.187496 34.283435 -3.020363
2011-11-10 13:45:12 51°34.278 2°27.525 14.5527 4.187703 34.281651 -3.020363
2011-11-10 13:46:12 51°34.143 2°27.325 14.5807 4.186977 34.233113 -3.020363
2011-11-10 13:47:12 51°34.013 2°27.119 14.5644 4.189154 34.242728 -3.020363
2011-11-10 13:48:12 51°33.882 2°26.914 14.5676 4.190191 34.248528 -3.020363
2011-11-10 13:49:12 51°33.745 2°26.721 14.5605 4.191331 34.25454 -3.020363
2011-11-10 13:50:12 51°33.611 2°26.516 14.5499 4.19185 34.276171 -3.020363
2011-11-10 13:51:12 51°33.476 2°26.321 14.5421 4.191746 34.287723 -3.020363
2011-11-10 13:52:12 51°33.344 2°26.122 14.5296 4.19185 34.2975 -3.020363
2011-11-10 13:53:12 51°33.212 2°25.92 14.5471 4.19071 34.296639 -3.020363
2011-11-10 13:54:12 51°33.086 2°25.705 14.5909 4.192161 34.295193 -3.020363
2011-11-10 13:55:12 51°32.955 2°25.5 14.5713 4.193716 34.29102 -3.020363
2011-11-10 13:56:12 51°32.819 2°25.298 14.575 4.194234 34.297963 -3.020363
2011-11-10 13:57:12 51°32.687 2°25.091 14.5861 4.194649 34.301018 -3.020363
2011-11-10 13:58:12 51°32.551 2°24.894 14.5763 4.195271 34.306703 -3.020363
2011-11-10 13:59:12 51°32.415 2°24.694 14.5916 4.195893 34.305033 -3.020363
2011-11-10 14:00:12 51°32.281 2°24.488 14.5858 4.196515 34.309246 -3.020363
2011-11-10 14:01:12 51°32.153 2°24.273 14.5985 4.19724 34.303377 -3.020363
2011-11-10 14:02:12 51°32.017 2°24.074 14.6101 4.197966 34.307066 -3.020363
2011-11-10 14:03:12 51°31.886 2°23.862 14.5941 4.198588 34.306133 -3.020363
2011-11-10 14:04:12 51°31.747 2°23.665 14.6355 4.199003 34.30845 -3.020363
2011-11-10 14:05:12 51°31.586 2°23.532 14.6059 4.199625 34.311927 -3.020363
2011-11-10 14:06:12 51°31.405 2°23.46 14.629 4.20035 34.316349 -3.020363
2011-11-10 14:07:12 51°31.228 2°23.373 14.6227 4.200972 34.310273 -3.020363
2011-11-10 14:08:12 51°31.043 2°23.382 14.6208 4.20118 34.312166 -3.020363
2011-11-10 14:09:12 51°30.855 2°23.404 14.6051 4.200558 34.306487 -3.020363
2011-11-10 14:10:12 51°30.666 2°23.427 14.5851 4.198173 34.30602 -3.020363
2011-11-10 14:11:12 51°30.478 2°23.44 14.5695 4.196307 34.302204 -3.020363
2011-11-10 14:12:12 51°30.291 2°23.442 14.5672 4.195271 34.299348 -3.020363
2011-11-10 14:13:12 51°30.103 2°23.454 14.5758 4.195582 34.299249 -3.020363
2011-11-10 14:14:12 51°29.916 2°23.47 14.6068 4.197033 34.305894 -3.020363
2011-11-10 14:15:12 51°29.726 2°23.467 14.5856 4.198277 34.313583 -3.020363
2011-11-10 14:16:12 51°29.535 2°23.477 14.6034 4.199417 34.313708 -3.020363
2011-11-10 14:17:12 51°29.343 2°23.497 14.6128 4.200143 34.31813 -3.020363
2011-11-10 14:18:12 51°29.153 2°23.515 14.6051 4.201284 34.3234 -3.020363
2011-11-10 14:19:12 51°28.964 2°23.511 14.6297 4.20232 34.323312 -3.020363
2011-11-10 14:20:12 51°28.777 2°23.529 14.642 4.202424 34.328668 -3.020363
2011-11-10 14:21:12 51°28.592 2°23.529 14.6494 4.203357 34.333512 -3.020363
2011-11-10 14:22:12 51°28.419 2°23.614 14.6162 4.204497 34.340248 -3.020363
2011-11-10 14:23:12 51°28.298 2°23.868 14.6261 4.203564 34.33614 -3.020363
2011-11-10 14:24:12 51°28.179 2°24.13 14.6514 4.203875 34.336774 -3.020363
2011-11-10 14:25:12 51°28.051 2°24.384 14.6462 4.204705 34.341406 -3.020363
2011-11-10 14:26:12 51°27.93 2°24.649 14.6243 4.20543 34.341416 -3.020363
2011-11-10 14:27:12 51°27.809 2°24.912 14.6184 4.205223 34.346139 -3.020363
2011-11-10 14:28:12 51°27.684 2°25.167 14.6122 4.204186 34.341084 -3.020363
2011-11-10 14:29:12 51°27.571 2°25.437 14.5917 4.202528 34.340644 -3.020363
2011-11-10 14:30:12 51°27.452 2°25.699 14.6007 4.199625 34.33031 -3.020363
2011-11-10 14:31:12 51°27.342 2°25.972 14.5688 4.196826 34.320917 -3.020363
2011-11-10 14:32:12 51°27.22 2°26.228 14.5354 4.194234 34.311207 -3.020363
2011-11-10 14:33:12 51°27.089 2°26.471 14.5497 4.192265 34.3035 -3.020363
2011-11-10 14:34:12 51°26.957 2°26.713 14.5242 4.191332 34.302329 -3.020363
2011-11-10 14:35:12 51°26.828 2°26.96 14.533 4.190295 34.297264 -3.020363
2011-11-10 14:36:12 51°26.706 2°27.219 14.5243 4.189984 34.293682 -3.020363
2011-11-10 14:37:12 51°26.584 2°27.477 14.5326 4.190399 34.295267 -3.020363
2011-11-10 14:38:12 51°26.457 2°27.727 14.5521 4.191021 34.295067 -3.020363
2011-11-10 14:39:12 51°26.33 2°27.976 14.5633 4.193094 34.299309 -3.020363
2011-11-10 14:40:12 51°26.207 2°28.231 14.5522 4.193405 34.299209 -3.020363
2011-11-10 14:41:12 51°26.073 2°28.468 14.516 4.191539 34.290241 -3.020363
2011-11-10 14:42:12 51°25.952 2°28.725 14.4643 4.184179 34.264857 -3.020363
2011-11-10 14:43:12 51°25.829 2°28.975 14.4385 4.176922 34.238177 -3.020363
2011-11-10 14:44:12 51°25.701 2°29.214 14.4096 4.172465 34.217224 -3.020363
2011-11-10 14:45:12 51°25.563 2°29.447 14.3894 4.168007 34.202886 -3.020363
2011-11-10 14:46:12 51°25.424 2°29.681 14.3627 4.164587 34.189199 -3.020363
2011-11-10 14:47:12 51°25.296 2°29.933 14.3422 4.160129 34.169677 -3.020363
2011-11-10 14:48:12 51°25.17 2°30.188 14.3622 4.15816 34.160446 -3.020363
2011-11-10 14:49:12 51°25.045 2°30.441 14.3729 4.160647 34.1678 -3.020363
2011-11-10 14:50:12 51°24.912 2°30.683 14.3654 4.162617 34.17629 -3.020363
2011-11-10 14:51:12 51°24.79 2°30.942 14.345 4.160026 34.167251 -3.020363
2011-11-10 14:52:12 51°24.663 2°31.19 14.3015 4.155154 34.143906 -3.020363
2011-11-10 14:53:12 51°24.54 2°31.445 14.2339 4.147068 34.115351 -3.020363
2011-11-10 14:54:12 51°24.419 2°31.707 14.168 4.13577 34.068994 -3.020363
2011-11-10 14:55:12 51°24.287 2°31.951 14.116 4.126234 34.035083 -3.020363
2011-11-10 14:56:12 51°24.156 2°32.2 14.0825 4.119497 34.012139 -3.020363
2011-11-10 14:57:12 51°24.02 2°32.442 14.0651 4.115454 33.999985 -3.020363
2011-11-10 14:58:12 51°23.89 2°32.697 14.0668 4.113174 33.991513 -3.020363
2011-11-10 14:59:12 51°23.756 2°32.945 14.0603 4.112759 33.990645 -3.020363
2011-11-10 15:00:12 51°23.625 2°33.198 14.0636 4.112448 33.989254 -3.020363
2011-11-10 15:01:12 51°23.497 2°33.453 14.0639 4.112759 33.989905 -3.020363
2011-11-10 15:02:12 51°23.363 2°33.699 14.0714 4.113278 33.990251 -3.020363
2011-11-10 15:03:12 51°23.224 2°33.934 14.067 4.113485 33.989946 -3.020363
2011-11-10 15:04:12 51°23.093 2°34.181 14.0535 4.11193 33.98299 -3.020363
2011-11-10 15:05:12 51°22.966 2°34.432 14.0616 4.110583 33.974989 -3.020363
2011-11-10 15:06:12 51°22.83 2°34.668 14.0637 4.110997 33.97364 -3.020363
2011-11-10 15:07:12 51°22.703 2°34.916 14.0634 4.111205 33.979991 -3.020363
2011-11-10 15:08:12 51°22.579 2°35.165 14.0609 4.111515 33.980642 -3.020363
2011-11-10 15:09:12 51°22.441 2°35.396 14.0408 4.110272 33.978035 -3.020363
2011-11-10 15:10:12 51°22.311 2°35.642 14.0341 4.107991 33.970293 -3.020363
2011-11-10 15:11:12 51°22.19 2°35.9 14.0238 4.107577 33.968684 -3.020363
2011-11-10 15:12:12 51°22.065 2°36.153 14.0043 4.106333 33.966814 -3.020363
2011-11-10 15:13:12 51°21.933 2°36.395 13.9755 4.104053 33.964249 -3.020363
2011-11-10 15:14:12 51°21.791 2°36.624 13.9048 4.100425 33.960338 -3.020363
2011-11-10 15:15:12 51°21.658 2°36.867 13.7852 4.090994 33.950178 -3.020363
2011-11-10 15:16:12 51°21.529 2°37.116 13.7054 4.075759 33.906227 -3.020363
2011-11-10 15:17:12 51°21.402 2°37.366 13.6454 4.065913 33.875772 -3.020363
2011-11-10 15:18:12 51°21.261 2°37.594 13.646 4.059695 33.856664 -3.020363
2011-11-10 15:19:12 51°21.127 2°37.834 13.6301 4.057311 33.848637 -3.020363
2011-11-10 15:20:12 51°20.996 2°38.076 13.6458 4.057519 33.851313 -3.020363
2011-11-10 15:21:12 51°20.854 2°38.303 13.6533 4.058659 33.858201 -3.020363
2011-11-10 15:22:12 51°20.725 2°38.549 13.6519 4.06011 33.864253 -3.020363
2011-11-10 15:23:12 51°20.586 2°38.78 13.6635 4.061975 33.87118 -3.020363
2011-11-10 15:24:12 51°20.45 2°39.017 13.6744 4.06353 33.879684 -3.020363
2011-11-10 15:25:12 51°20.322 2°39.261 13.6896 4.065706 33.888007 -3.020363
2011-11-10 15:26:12 51°20.194 2°39.503 13.6329 4.06353 33.879684 -3.020363
2011-11-10 15:27:12 51°20.064 2°39.745 13.616 4.05586 33.844819 -3.020363
2011-11-10 15:28:12 51°19.924 2°39.974 13.7062 4.056067 33.833326 -3.020363
2011-11-10 15:29:12 51°19.792 2°40.214 13.778 4.068297 33.874849 -3.020363
2011-11-10 15:30:12 51°19.656 2°40.448 13.8028 4.077624 33.910158 -3.020363
2011-11-10 15:31:12 51°19.526 2°40.685 13.7929 4.08063 33.926159 -3.020363
2011-11-10 15:32:12 51°19.388 2°40.913 13.7689 4.079594 33.925467 -3.020363
2011-11-10 15:33:12 51°19.263 2°41.162 13.7472 4.07493 33.91267 -3.020363
2011-11-10 15:34:12 51°19.134 2°41.407 13.7102 4.072442 33.899981 -3.020363
2011-11-10 15:35:12 51°18.997 2°41.645 13.6705 4.067468 33.884271 -3.020363
2011-11-10 15:36:12 51°18.852 2°41.868 13.6644 4.062286 33.865125 -3.020363
2011-11-10 15:37:12 51°18.722 2°42.111 13.5773 4.064981 33.903641 -3.020363
2011-11-10 15:38:12 51°18.606 2°42.372 13.4849 4.04985 33.850021 -3.020363
2011-11-10 15:39:12 51°18.472 2°42.614 13.4098 4.036792 33.79316 -3.020363
2011-11-10 15:40:12 51°18.337 2°42.854 13.3587 4.031507 33.812653 -3.020363
2011-11-10 15:41:12 51°18.19 2°43.079 13.3538 4.025393 33.793666 -3.020363
2011-11-10 15:42:12 51°18.04 2°43.296 13.3746 4.027466 33.812336 -3.020363
2011-11-10 15:43:12 51°17.898 2°43.512 13.3432 4.031922 33.847329 -3.020363
2011-11-10 15:44:12 51°17.763 2°43.736 13.288 4.02871 33.845798 -3.020363
2011-11-10 15:45:12 51°17.623 2°43.953 13.2473 4.016481 33.776973 -3.020363
2011-11-10 15:46:12 51°17.474 2°44.159 13.2305 4.008087 33.729754 -3.020363
2011-11-10 15:47:12 51°17.324 2°44.362 13.222 4.007465 33.7367 -3.020363
2011-11-10 15:48:12 51°17.165 2°44.556 13.1995 4.001766 33.697441 -3.020363
2011-11-10 15:49:12 51°17.003 2°44.742 13.2203 4.000626 33.693496 -3.020363
2011-11-10 15:50:12 51°16.85 2°44.944 13.2376 4.006947 33.737851 -3.020363
2011-11-10 15:51:12 51°16.692 2°45.136 13.2615 4.013787 33.784038 -3.020363
2011-11-10 15:52:12 51°16.543 2°45.34 13.2695 4.019487 33.824011 -3.020363
2011-11-10 15:53:12 51°16.393 2°45.543 13.2773 4.022492 33.842435 -3.020363
2011-11-10 15:54:12 51°16.255 2°45.759 13.1945 4.019487 33.824765 -3.020363
2011-11-10 15:55:12 51°16.154 2°46.024 13.1321 4.003113 33.73946 -3.020363
2011-11-10 15:56:12 51°16.092 2°46.32 13.0828 3.989434 33.660467 -3.020363
2011-11-10 15:57:12 51°16.018 2°46.612 13.051 3.980004 33.608556 -3.020363
2011-11-10 15:58:12 51°15.95 2°46.91 13.0358 3.973373 33.574666 -3.020363
2011-11-10 15:59:12 51°15.872 2°47.204 13.0164 3.967777 33.536213 -3.020363
2011-11-10 16:00:12 51°15.792 2°47.492 12.9939 3.9627 33.507137 -3.020363
2011-11-10 16:01:12 51°15.72 2°47.787 12.9634 3.959177 33.496467 -3.020363
2011-11-10 16:02:12 51°15.644 2°48.078 12.9849 3.958141 33.503998 -3.020363
2011-11-10 16:03:12 51°15.564 2°48.364 13.0538 3.969643 33.580163 -3.020363
2011-11-10 16:04:12 51°15.503 2°48.657 13.0644 3.983321 33.656383 -3.020363
2011-11-10 16:05:12 51°15.442 2°48.951 13.0809 3.985808 33.679828 -3.020363
2011-11-10 16:06:12 51°15.372 2°49.244 13.104 3.988917 33.689508 -3.020363
2011-11-10 16:07:12 51°15.288 2°49.526 13.0831 3.992233 33.699625 -3.020363
2011-11-10 16:08:12 51°15.214 2°49.813 12.9907 3.986741 33.690131 -3.020363
2011-11-10 16:09:12 51°15.168 2°50.114 12.9265 3.972545 33.632464 -3.020363
2011-11-10 16:10:12 51°15.131 2°50.416 12.8845 3.963115 33.587955 -3.020363
2011-11-10 16:11:12 51°15.079 2°50.712 12.877 3.954929 33.538507 -3.020363
2011-11-10 16:12:12 51°15.042 2°51.014 12.8376 3.949955 33.51185 -3.020363
2011-11-10 16:13:12 51°14.982 2°51.309 12.809 3.93949 33.442244 -3.020363
2011-11-10 16:14:12 51°14.931 2°51.606 12.7939 3.933584 33.417253 -3.020363
2011-11-10 16:15:12 51°14.879 2°51.903 12.8164 3.92343 33.329361 -3.020363
2011-11-10 16:16:12 51°14.825 2°52.197 12.8514 3.933273 33.389424 -3.020363
2011-11-10 16:17:12 51°14.783 2°52.495 12.9056 3.943842 33.457026 -3.020363
2011-11-10 16:18:12 51°14.745 2°52.794 12.9496 3.961457 33.582863 -3.020363
2011-11-10 16:19:12 51°14.732 2°53.097 12.973 3.972856 33.650523 -3.020363
2011-11-10 16:20:12 51°14.737 2°53.401 12.9346 3.969229 33.607189 -3.020363
2011-11-10 16:21:12 51°14.736 2°53.7 12.7301 3.947365 33.468481 -3.020363
2011-11-10 16:22:12 51°14.724 2°53.998 12.6375 3.891621 33.088083 -3.020363
2011-11-10 16:23:12 51°14.685 2°54.292 12.9082 3.850697 32.756957 -3.020363
2011-11-10 16:24:12 51°14.638 2°54.581 13.0483 3.850179 32.747592 -3.020363
2011-11-10 16:25:12 51°14.57 2°54.86 13.1902 3.849868 32.74242 -3.020363
2011-11-10 16:26:12 51°14.446 2°55.088 13.3257 3.849868 32.743905 -3.020363
2011-11-10 16:27:13 51°14.289 2°55.264 13.4548 3.850179 32.741654 -3.020363
2011-11-10 16:28:15 51°14.14 2°55.411 13.5957 3.851629 32.736844 -3.020363
2011-11-10 16:29:13 51°14.01 2°55.503 13.6692 3.854115 32.735177 -3.020363
2011-11-10 16:30:13 51°13.912 2°55.568 13.7821 3.85743 32.736173 -3.020363
2011-11-10 16:31:16 51°13.81 2°55.645 13.8822 3.860952 32.736175 -3.020363
2011-11-10 16:32:15 51°13.728 2°55.753 14.026 3.864681 32.741096 -3.020363
2011-11-10 16:33:16 51°13.679 2°55.859 14.1588 3.868307 32.745041 -3.020363
2011-11-10 16:34:16 51°13.65 2°55.946 14.3203 3.871829 32.750222 -3.020363
2011-11-10 16:35:15 51°13.636 2°56.012 14.4184 3.875352 32.756876 -3.020363